sensor_id;sensor_type;location;lat;lon;timestamp;temperature;humidity
54192;DHT22;40101;53.002;6.488;2022-12-18T00:01:12;-2.80;99.90
54192;DHT22;40101;53.002;6.488;2022-12-18T00:03:39;-2.80;99.90
54192;DHT22;40101;53.002;6.488;2022-12-18T00:06:04;-2.00;99.90
54192;DHT22;40101;53.002;6.488;2022-12-18T00:08:30;-2.90;99.90
54192;DHT22;40101;53.002;6.488;2022-12-18T00:11:06;-2.90;99.90
54192;DHT22;40101;53.002;6.488;2022-12-18T00:13:32;-2.90;99.90
54192;DHT22;40101;53.002;6.488;2022-12-18T00:16:06;-2.90;99.90
54192;DHT22;40101;53.002;6.488;2022-12-18T00:18:32;-3.00;99.90
54192;DHT22;40101;53.002;6.488;2022-12-18T00:21:04;-3.00;99.90
54192;DHT22;40101;53.002;6.488;2022-12-18T00:23:30;-3.00;99.90
54192;DHT22;40101;53.002;6.488;2022-12-18T00:26:05;-3.00;99.90
54192;DHT22;40101;53.002;6.488;2022-12-18T00:28:32;-3.00;99.90
54192;DHT22;40101;53.002;6.488;2022-12-18T00:31:09;-3.00;99.90
54192;DHT22;40101;53.002;6.488;2022-12-18T00:33:36;-3.00;99.90
54192;DHT22;40101;53.002;6.488;2022-12-18T00:36:08;-3.00;99.90
54192;DHT22;40101;53.002;6.488;2022-12-18T00:38:34;-3.00;99.90
54192;DHT22;40101;53.002;6.488;2022-12-18T00:41:00;-2.90;99.90
54192;DHT22;40101;53.002;6.488;2022-12-18T00:43:27;-2.90;99.90
54192;DHT22;40101;53.002;6.488;2022-12-18T00:45:52;-2.90;99.90
54192;DHT22;40101;53.002;6.488;2022-12-18T00:48:18;-3.00;99.90
54192;DHT22;40101;53.002;6.488;2022-12-18T00:50:44;-3.00;99.90
54192;DHT22;40101;53.002;6.488;2022-12-18T00:53:10;-3.00;99.90
54192;DHT22;40101;53.002;6.488;2022-12-18T00:55:37;-3.00;99.90
54192;DHT22;40101;53.002;6.488;2022-12-18T00:58:04;-3.10;99.90
54192;DHT22;40101;53.002;6.488;2022-12-18T01:00:32;-3.10;99.90
54192;DHT22;40101;53.002;6.488;2022-12-18T01:02:58;-2.60;99.90
54192;DHT22;40101;53.002;6.488;2022-12-18T01:05:23;-3.20;99.90
54192;DHT22;40101;53.002;6.488;2022-12-18T01:07:49;-3.20;99.90
54192;DHT22;40101;53.002;6.488;2022-12-18T01:10:15;-2.30;99.90
54192;DHT22;40101;53.002;6.488;2022-12-18T01:12:41;-3.20;99.90
54192;DHT22;40101;53.002;6.488;2022-12-18T01:15:07;-3.30;99.90
54192;DHT22;40101;53.002;6.488;2022-12-18T01:17:33;-2.40;99.90
54192;DHT22;40101;53.002;6.488;2022-12-18T01:19:59;-3.40;99.90
54192;DHT22;40101;53.002;6.488;2022-12-18T01:22:24;-3.40;99.90
54192;DHT22;40101;53.002;6.488;2022-12-18T01:24:50;-3.50;99.90
54192;DHT22;40101;53.002;6.488;2022-12-18T01:27:16;-3.50;99.90
54192;DHT22;40101;53.002;6.488;2022-12-18T01:29:41;-3.50;99.90
54192;DHT22;40101;53.002;6.488;2022-12-18T01:32:08;-3.40;99.90
54192;DHT22;40101;53.002;6.488;2022-12-18T01:34:35;-2.60;99.90
54192;DHT22;40101;53.002;6.488;2022-12-18T01:37:03;-3.90;99.90
54192;DHT22;40101;53.002;6.488;2022-12-18T01:39:28;-3.40;99.90
54192;DHT22;40101;53.002;6.488;2022-12-18T01:41:54;-3.40;99.90
54192;DHT22;40101;53.002;6.488;2022-12-18T01:47:43;-3.40;99.90
54192;DHT22;40101;53.002;6.488;2022-12-18T01:50:25;-3.50;99.90
54192;DHT22;40101;53.002;6.488;2022-12-18T01:53:20;-3.40;99.90
54192;DHT22;40101;53.002;6.488;2022-12-18T01:55:52;-3.40;99.90
54192;DHT22;40101;53.002;6.488;2022-12-18T01:58:20;-3.50;99.90
54192;DHT22;40101;53.002;6.488;2022-12-18T02:00:50;-3.50;99.90
54192;DHT22;40101;53.002;6.488;2022-12-18T02:03:15;-3.50;99.90
54192;DHT22;40101;53.002;6.488;2022-12-18T02:05:49;-3.60;99.90
54192;DHT22;40101;53.002;6.488;2022-12-18T02:11:02;-3.60;99.90
54192;DHT22;40101;53.002;6.488;2022-12-18T02:18:40;-3.60;99.90
54192;DHT22;40101;53.002;6.488;2022-12-18T02:21:15;-3.60;99.90
54192;DHT22;40101;53.002;6.488;2022-12-18T02:26:49;-3.60;99.90
54192;DHT22;40101;53.002;6.488;2022-12-18T02:29:18;-3.50;99.90
54192;DHT22;40101;53.002;6.488;2022-12-18T02:31:51;-3.50;99.90
54192;DHT22;40101;53.002;6.488;2022-12-18T02:34:18;-3.60;99.90
54192;DHT22;40101;53.002;6.488;2022-12-18T02:36:46;-3.60;99.90
54192;DHT22;40101;53.002;6.488;2022-12-18T02:39:14;-3.60;99.90
54192;DHT22;40101;53.002;6.488;2022-12-18T02:41:40;-2.40;99.90
54192;DHT22;40101;53.002;6.488;2022-12-18T02:44:10;-3.70;99.90
54192;DHT22;40101;53.002;6.488;2022-12-18T02:46:38;-3.70;99.90
54192;DHT22;40101;53.002;6.488;2022-12-18T02:52:00;-3.80;99.90
54192;DHT22;40101;53.002;6.488;2022-12-18T02:54:36;-3.10;99.90
54192;DHT22;40101;53.002;6.488;2022-12-18T03:00:10;-3.60;99.90
54192;DHT22;40101;53.002;6.488;2022-12-18T03:02:59;-3.90;99.90
54192;DHT22;40101;53.002;6.488;2022-12-18T03:05:45;-3.90;99.90
54192;DHT22;40101;53.002;6.488;2022-12-18T03:08:18;-3.90;99.90
54192;DHT22;40101;53.002;6.488;2022-12-18T03:10:51;-4.00;99.90
54192;DHT22;40101;53.002;6.488;2022-12-18T03:13:33;-4.00;99.90
54192;DHT22;40101;53.002;6.488;2022-12-18T03:16:00;-3.50;99.90
54192;DHT22;40101;53.002;6.488;2022-12-18T03:18:35;-4.00;99.90
54192;DHT22;40101;53.002;6.488;2022-12-18T03:21:05;-4.10;99.90
54192;DHT22;40101;53.002;6.488;2022-12-18T03:23:44;-5.10;99.90
54192;DHT22;40101;53.002;6.488;2022-12-18T03:26:15;-4.10;99.90
54192;DHT22;40101;53.002;6.488;2022-12-18T03:28:45;-4.20;99.90
54192;DHT22;40101;53.002;6.488;2022-12-18T03:31:14;-4.20;99.90
54192;DHT22;40101;53.002;6.488;2022-12-18T03:33:54;-4.20;99.90
54192;DHT22;40101;53.002;6.488;2022-12-18T03:36:21;-4.20;99.90
54192;DHT22;40101;53.002;6.488;2022-12-18T03:38:48;-3.40;99.90
54192;DHT22;40101;53.002;6.488;2022-12-18T03:41:32;-4.30;99.90
54192;DHT22;40101;53.002;6.488;2022-12-18T03:44:20;-4.30;99.90
54192;DHT22;40101;53.002;6.488;2022-12-18T03:47:03;-4.30;99.90
54192;DHT22;40101;53.002;6.488;2022-12-18T03:52:22;-5.10;99.90
54192;DHT22;40101;53.002;6.488;2022-12-18T03:54:49;-3.50;99.90
54192;DHT22;40101;53.002;6.488;2022-12-18T03:57:19;-4.40;99.90
54192;DHT22;40101;53.002;6.488;2022-12-18T03:59:48;-4.40;99.90
54192;DHT22;40101;53.002;6.488;2022-12-18T04:02:16;-4.40;99.90
54192;DHT22;40101;53.002;6.488;2022-12-18T04:04:43;-4.50;99.90
54192;DHT22;40101;53.002;6.488;2022-12-18T04:07:10;-4.50;99.90
54192;DHT22;40101;53.002;6.488;2022-12-18T04:09:39;-4.50;99.90
54192;DHT22;40101;53.002;6.488;2022-12-18T04:12:06;-4.50;99.90
54192;DHT22;40101;53.002;6.488;2022-12-18T04:14:31;-4.50;99.90
54192;DHT22;40101;53.002;6.488;2022-12-18T04:17:01;-4.60;99.90
54192;DHT22;40101;53.002;6.488;2022-12-18T04:19:28;-4.60;99.90
54192;DHT22;40101;53.002;6.488;2022-12-18T04:21:54;-4.60;99.90
54192;DHT22;40101;53.002;6.488;2022-12-18T04:24:19;-4.60;99.90
54192;DHT22;40101;53.002;6.488;2022-12-18T04:26:45;-4.60;99.90
54192;DHT22;40101;53.002;6.488;2022-12-18T04:29:11;-4.60;99.90
54192;DHT22;40101;53.002;6.488;2022-12-18T04:31:36;-4.60;99.90
54192;DHT22;40101;53.002;6.488;2022-12-18T04:34:02;-4.70;99.90
54192;DHT22;40101;53.002;6.488;2022-12-18T04:36:28;-4.70;99.90
54192;DHT22;40101;53.002;6.488;2022-12-18T04:38:54;-4.70;99.90
54192;DHT22;40101;53.002;6.488;2022-12-18T04:41:20;-4.70;99.90
54192;DHT22;40101;53.002;6.488;2022-12-18T04:43:45;-4.70;99.90
54192;DHT22;40101;53.002;6.488;2022-12-18T04:46:11;-4.80;99.90
54192;DHT22;40101;53.002;6.488;2022-12-18T04:48:37;-4.80;99.90
54192;DHT22;40101;53.002;6.488;2022-12-18T04:51:04;-4.20;99.90
54192;DHT22;40101;53.002;6.488;2022-12-18T04:53:30;-4.80;99.90
54192;DHT22;40101;53.002;6.488;2022-12-18T04:56:08;-4.80;99.90
54192;DHT22;40101;53.002;6.488;2022-12-18T04:58:34;-4.30;99.90
54192;DHT22;40101;53.002;6.488;2022-12-18T05:01:00;-4.90;99.90
54192;DHT22;40101;53.002;6.488;2022-12-18T05:03:25;-4.80;99.90
54192;DHT22;40101;53.002;6.488;2022-12-18T05:05:51;-4.80;99.90
54192;DHT22;40101;53.002;6.488;2022-12-18T05:08:18;-4.80;99.90
54192;DHT22;40101;53.002;6.488;2022-12-18T05:10:44;-4.80;99.90
54192;DHT22;40101;53.002;6.488;2022-12-18T05:13:10;-4.80;99.90
54192;DHT22;40101;53.002;6.488;2022-12-18T05:15:35;-4.80;99.90
54192;DHT22;40101;53.002;6.488;2022-12-18T05:18:02;-4.80;99.90
54192;DHT22;40101;53.002;6.488;2022-12-18T05:20:28;-4.80;99.90
54192;DHT22;40101;53.002;6.488;2022-12-18T05:22:54;-4.70;99.90
54192;DHT22;40101;53.002;6.488;2022-12-18T05:25:20;-4.80;99.90
54192;DHT22;40101;53.002;6.488;2022-12-18T05:27:46;-4.80;99.90
54192;DHT22;40101;53.002;6.488;2022-12-18T05:30:12;-4.80;99.90
54192;DHT22;40101;53.002;6.488;2022-12-18T05:32:39;-4.80;99.90
54192;DHT22;40101;53.002;6.488;2022-12-18T05:35:06;-4.80;99.90
54192;DHT22;40101;53.002;6.488;2022-12-18T05:37:32;-4.90;99.90
54192;DHT22;40101;53.002;6.488;2022-12-18T05:39:58;-4.90;99.90
54192;DHT22;40101;53.002;6.488;2022-12-18T05:42:24;-4.90;99.90
54192;DHT22;40101;53.002;6.488;2022-12-18T05:44:50;-4.90;99.90
54192;DHT22;40101;53.002;6.488;2022-12-18T05:47:16;-4.90;99.90
54192;DHT22;40101;53.002;6.488;2022-12-18T05:49:41;-4.90;99.90
54192;DHT22;40101;53.002;6.488;2022-12-18T05:52:07;-4.90;99.90
54192;DHT22;40101;53.002;6.488;2022-12-18T05:54:33;-4.90;99.90
54192;DHT22;40101;53.002;6.488;2022-12-18T05:56:58;-4.90;99.90
54192;DHT22;40101;53.002;6.488;2022-12-18T05:59:24;-4.90;99.90
54192;DHT22;40101;53.002;6.488;2022-12-18T06:01:53;-4.90;99.90
54192;DHT22;40101;53.002;6.488;2022-12-18T06:04:18;-4.90;99.90
54192;DHT22;40101;53.002;6.488;2022-12-18T06:06:44;-4.90;99.90
54192;DHT22;40101;53.002;6.488;2022-12-18T06:09:10;-4.90;99.90
54192;DHT22;40101;53.002;6.488;2022-12-18T06:11:37;-4.90;99.90
54192;DHT22;40101;53.002;6.488;2022-12-18T06:14:04;-5.00;99.90
54192;DHT22;40101;53.002;6.488;2022-12-18T06:16:30;-5.30;99.90
54192;DHT22;40101;53.002;6.488;2022-12-18T06:18:57;-5.00;99.90
54192;DHT22;40101;53.002;6.488;2022-12-18T06:21:23;-5.00;99.90
54192;DHT22;40101;53.002;6.488;2022-12-18T06:23:48;-5.00;99.90
54192;DHT22;40101;53.002;6.488;2022-12-18T06:26:15;-5.00;99.90
54192;DHT22;40101;53.002;6.488;2022-12-18T06:28:41;-5.00;99.90
54192;DHT22;40101;53.002;6.488;2022-12-18T06:31:08;-5.00;99.90
54192;DHT22;40101;53.002;6.488;2022-12-18T06:33:34;-4.90;99.90
54192;DHT22;40101;53.002;6.488;2022-12-18T06:36:19;-5.00;99.90
54192;DHT22;40101;53.002;6.488;2022-12-18T06:38:46;-5.00;99.90
54192;DHT22;40101;53.002;6.488;2022-12-18T06:41:18;-5.00;99.90
54192;DHT22;40101;53.002;6.488;2022-12-18T06:43:44;-5.00;99.90
54192;DHT22;40101;53.002;6.488;2022-12-18T06:46:10;-5.00;99.90
54192;DHT22;40101;53.002;6.488;2022-12-18T06:48:36;-5.00;99.90
54192;DHT22;40101;53.002;6.488;2022-12-18T06:51:02;-5.00;99.90
54192;DHT22;40101;53.002;6.488;2022-12-18T06:53:28;-5.00;99.90
54192;DHT22;40101;53.002;6.488;2022-12-18T06:56:05;-5.00;99.90
54192;DHT22;40101;53.002;6.488;2022-12-18T06:58:31;-5.00;99.90
54192;DHT22;40101;53.002;6.488;2022-12-18T07:01:01;-5.00;99.90
54192;DHT22;40101;53.002;6.488;2022-12-18T07:03:27;-5.00;99.90
54192;DHT22;40101;53.002;6.488;2022-12-18T07:05:53;-5.10;99.90
54192;DHT22;40101;53.002;6.488;2022-12-18T07:08:18;-4.90;99.90
54192;DHT22;40101;53.002;6.488;2022-12-18T07:10:44;-5.10;99.90
54192;DHT22;40101;53.002;6.488;2022-12-18T07:13:10;-5.10;99.90
54192;DHT22;40101;53.002;6.488;2022-12-18T07:15:36;-4.30;99.90
54192;DHT22;40101;53.002;6.488;2022-12-18T07:18:01;-5.00;99.90
54192;DHT22;40101;53.002;6.488;2022-12-18T07:20:27;-5.00;99.90
54192;DHT22;40101;53.002;6.488;2022-12-18T07:22:53;-4.90;99.90
54192;DHT22;40101;53.002;6.488;2022-12-18T07:25:18;-5.00;99.90
54192;DHT22;40101;53.002;6.488;2022-12-18T07:27:44;-4.90;99.90
54192;DHT22;40101;53.002;6.488;2022-12-18T07:30:10;-4.90;99.90
54192;DHT22;40101;53.002;6.488;2022-12-18T07:32:36;-4.90;99.90
54192;DHT22;40101;53.002;6.488;2022-12-18T07:35:01;-4.90;99.90
54192;DHT22;40101;53.002;6.488;2022-12-18T07:37:27;-4.90;99.90
54192;DHT22;40101;53.002;6.488;2022-12-18T07:39:52;-4.90;99.90
54192;DHT22;40101;53.002;6.488;2022-12-18T07:42:18;-4.90;99.90
54192;DHT22;40101;53.002;6.488;2022-12-18T07:44:56;-4.90;99.90
54192;DHT22;40101;53.002;6.488;2022-12-18T07:47:22;-4.90;99.90
54192;DHT22;40101;53.002;6.488;2022-12-18T07:49:47;-4.90;99.90
54192;DHT22;40101;53.002;6.488;2022-12-18T07:52:13;-4.80;99.90
54192;DHT22;40101;53.002;6.488;2022-12-18T07:54:39;-4.80;99.90
54192;DHT22;40101;53.002;6.488;2022-12-18T07:57:06;-5.10;99.90
54192;DHT22;40101;53.002;6.488;2022-12-18T07:59:32;-4.50;99.90
54192;DHT22;40101;53.002;6.488;2022-12-18T08:01:57;-4.30;99.90
54192;DHT22;40101;53.002;6.488;2022-12-18T08:04:24;-4.10;99.90
54192;DHT22;40101;53.002;6.488;2022-12-18T08:06:50;-3.80;99.90
54192;DHT22;40101;53.002;6.488;2022-12-18T08:09:15;-3.40;99.90
54192;DHT22;40101;53.002;6.488;2022-12-18T08:11:41;-2.90;99.90
54192;DHT22;40101;53.002;6.488;2022-12-18T08:14:06;-2.50;99.90
54192;DHT22;40101;53.002;6.488;2022-12-18T08:16:32;-2.60;99.90
54192;DHT22;40101;53.002;6.488;2022-12-18T08:18:58;-2.40;99.90
54192;DHT22;40101;53.002;6.488;2022-12-18T08:21:26;-3.10;99.90
54192;DHT22;40101;53.002;6.488;2022-12-18T08:23:54;-3.30;99.90
54192;DHT22;40101;53.002;6.488;2022-12-18T08:26:21;-3.50;99.90
54192;DHT22;40101;53.002;6.488;2022-12-18T08:28:48;-3.60;99.90
54192;DHT22;40101;53.002;6.488;2022-12-18T08:31:13;-3.00;99.90
54192;DHT22;40101;53.002;6.488;2022-12-18T08:33:40;-3.80;99.90
54192;DHT22;40101;53.002;6.488;2022-12-18T08:36:06;-3.80;99.90
54192;DHT22;40101;53.002;6.488;2022-12-18T08:38:33;-3.80;99.90
54192;DHT22;40101;53.002;6.488;2022-12-18T08:41:04;-3.80;99.90
54192;DHT22;40101;53.002;6.488;2022-12-18T08:43:29;-3.80;99.90
54192;DHT22;40101;53.002;6.488;2022-12-18T08:46:14;-3.80;99.90
54192;DHT22;40101;53.002;6.488;2022-12-18T08:48:39;-3.70;99.90
54192;DHT22;40101;53.002;6.488;2022-12-18T08:51:05;-2.60;99.90
54192;DHT22;40101;53.002;6.488;2022-12-18T08:53:31;-3.70;99.90
54192;DHT22;40101;53.002;6.488;2022-12-18T08:55:57;-3.60;99.90
54192;DHT22;40101;53.002;6.488;2022-12-18T08:58:23;-3.50;99.90
54192;DHT22;40101;53.002;6.488;2022-12-18T09:00:49;-3.40;99.90
54192;DHT22;40101;53.002;6.488;2022-12-18T09:03:16;-3.30;99.90
54192;DHT22;40101;53.002;6.488;2022-12-18T09:05:42;-3.10;99.90
54192;DHT22;40101;53.002;6.488;2022-12-18T09:08:08;-2.90;99.90
54192;DHT22;40101;53.002;6.488;2022-12-18T09:10:41;-2.70;99.90
54192;DHT22;40101;53.002;6.488;2022-12-18T09:13:08;-2.50;99.90
54192;DHT22;40101;53.002;6.488;2022-12-18T09:15:34;-2.40;99.90
54192;DHT22;40101;53.002;6.488;2022-12-18T09:18:05;-2.30;99.90
54192;DHT22;40101;53.002;6.488;2022-12-18T09:20:30;-2.30;99.90
54192;DHT22;40101;53.002;6.488;2022-12-18T09:22:56;-2.30;99.90
54192;DHT22;40101;53.002;6.488;2022-12-18T09:25:21;-2.00;99.90
54192;DHT22;40101;53.002;6.488;2022-12-18T09:27:47;-2.40;99.90
54192;DHT22;40101;53.002;6.488;2022-12-18T09:30:13;-2.30;99.90
54192;DHT22;40101;53.002;6.488;2022-12-18T09:32:39;-2.20;99.90
54192;DHT22;40101;53.002;6.488;2022-12-18T09:35:05;-2.00;99.90
54192;DHT22;40101;53.002;6.488;2022-12-18T09:37:31;-1.70;99.90
54192;DHT22;40101;53.002;6.488;2022-12-18T09:39:56;-1.60;99.90
54192;DHT22;40101;53.002;6.488;2022-12-18T09:42:22;-1.60;99.90
54192;DHT22;40101;53.002;6.488;2022-12-18T09:44:53;-0.90;99.90
54192;DHT22;40101;53.002;6.488;2022-12-18T09:47:23;-1.30;99.90
54192;DHT22;40101;53.002;6.488;2022-12-18T09:49:58;-1.60;99.90
54192;DHT22;40101;53.002;6.488;2022-12-18T09:52:34;-1.50;99.90
54192;DHT22;40101;53.002;6.488;2022-12-18T09:55:24;-1.50;99.90
54192;DHT22;40101;53.002;6.488;2022-12-18T09:58:19;-1.60;99.90
54192;DHT22;40101;53.002;6.488;2022-12-18T10:00:46;-1.60;99.90
54192;DHT22;40101;53.002;6.488;2022-12-18T10:03:13;-0.90;99.90
54192;DHT22;40101;53.002;6.488;2022-12-18T10:05:49;-1.60;99.90
54192;DHT22;40101;53.002;6.488;2022-12-18T10:08:47;-1.50;99.90
54192;DHT22;40101;53.002;6.488;2022-12-18T10:11:56;-1.00;99.90
54192;DHT22;40101;53.002;6.488;2022-12-18T10:22:39;-1.00;99.90
54192;DHT22;40101;53.002;6.488;2022-12-18T10:25:18;-1.20;99.90
54192;DHT22;40101;53.002;6.488;2022-12-18T10:27:46;-1.40;99.90
54192;DHT22;40101;53.002;6.488;2022-12-18T10:30:14;-1.60;99.90
54192;DHT22;40101;53.002;6.488;2022-12-18T10:32:41;-1.60;99.90
54192;DHT22;40101;53.002;6.488;2022-12-18T10:35:20;-1.60;99.90
54192;DHT22;40101;53.002;6.488;2022-12-18T10:40:30;-1.60;99.90
54192;DHT22;40101;53.002;6.488;2022-12-18T10:43:13;-1.60;99.90
54192;DHT22;40101;53.002;6.488;2022-12-18T10:45:40;-1.50;99.90
54192;DHT22;40101;53.002;6.488;2022-12-18T10:48:21;-1.50;99.90
54192;DHT22;40101;53.002;6.488;2022-12-18T10:50:49;-0.40;99.90
54192;DHT22;40101;53.002;6.488;2022-12-18T10:53:28;-1.50;99.90
54192;DHT22;40101;53.002;6.488;2022-12-18T10:55:57;-1.40;99.90
54192;DHT22;40101;53.002;6.488;2022-12-18T11:01:11;-1.40;99.90
54192;DHT22;40101;53.002;6.488;2022-12-18T11:06:22;-1.30;99.90
54192;DHT22;40101;53.002;6.488;2022-12-18T11:11:28;-1.30;99.90
54192;DHT22;40101;53.002;6.488;2022-12-18T11:16:22;-1.30;99.90
54192;DHT22;40101;53.002;6.488;2022-12-18T11:18:49;-1.20;99.90
54192;DHT22;40101;53.002;6.488;2022-12-18T11:21:14;-1.20;99.90
54192;DHT22;40101;53.002;6.488;2022-12-18T11:23:51;-1.20;99.90
54192;DHT22;40101;53.002;6.488;2022-12-18T11:26:18;-1.20;99.90
54192;DHT22;40101;53.002;6.488;2022-12-18T11:28:47;-0.70;99.90
54192;DHT22;40101;53.002;6.488;2022-12-18T11:31:25;-1.20;99.90
54192;DHT22;40101;53.002;6.488;2022-12-18T11:34:28;-1.10;99.90
54192;DHT22;40101;53.002;6.488;2022-12-18T11:36:55;-1.10;99.90
54192;DHT22;40101;53.002;6.488;2022-12-18T11:39:39;-1.00;99.90
54192;DHT22;40101;53.002;6.488;2022-12-18T11:50:19;-1.00;99.90
54192;DHT22;40101;53.002;6.488;2022-12-18T11:52:47;0.20;99.90
54192;DHT22;40101;53.002;6.488;2022-12-18T11:58:12;-1.70;99.90
54192;DHT22;40101;53.002;6.488;2022-12-18T12:00:50;-0.90;99.90
54192;DHT22;40101;53.002;6.488;2022-12-18T12:03:27;-0.90;99.90
54192;DHT22;40101;53.002;6.488;2022-12-18T12:11:27;-0.70;99.90
54192;DHT22;40101;53.002;6.488;2022-12-18T12:14:31;-0.10;99.90
54192;DHT22;40101;53.002;6.488;2022-12-18T12:19:49;-0.70;99.90
54192;DHT22;40101;53.002;6.488;2022-12-18T12:22:22;-0.10;99.90
54192;DHT22;40101;53.002;6.488;2022-12-18T12:33:09;-0.70;99.90
54192;DHT22;40101;53.002;6.488;2022-12-18T12:36:01;-0.70;99.90
54192;DHT22;40101;53.002;6.488;2022-12-18T12:41:07;0.60;99.90
54192;DHT22;40101;53.002;6.488;2022-12-18T12:43:56;-0.40;99.90
54192;DHT22;40101;53.002;6.488;2022-12-18T12:46:24;-0.70;99.90
54192;DHT22;40101;53.002;6.488;2022-12-18T12:49:00;-0.60;99.90
54192;DHT22;40101;53.002;6.488;2022-12-18T12:51:34;-0.60;99.90
54192;DHT22;40101;53.002;6.488;2022-12-18T12:54:03;-0.60;99.90
54192;DHT22;40101;53.002;6.488;2022-12-18T12:56:48;-0.60;99.90
54192;DHT22;40101;53.002;6.488;2022-12-18T13:02:18;-0.50;99.90
54192;DHT22;40101;53.002;6.488;2022-12-18T13:04:48;-0.50;99.90
54192;DHT22;40101;53.002;6.488;2022-12-18T13:10:12;-0.50;99.90
54192;DHT22;40101;53.002;6.488;2022-12-18T13:12:55;-0.50;99.90
54192;DHT22;40101;53.002;6.488;2022-12-18T13:17:48;-0.40;99.90
54192;DHT22;40101;53.002;6.488;2022-12-18T13:20:15;0.10;99.90
54192;DHT22;40101;53.002;6.488;2022-12-18T13:22:44;-0.40;99.90
54192;DHT22;40101;53.002;6.488;2022-12-18T13:25:34;0.60;99.90
54192;DHT22;40101;53.002;6.488;2022-12-18T13:28:07;-0.30;99.90
54192;DHT22;40101;53.002;6.488;2022-12-18T13:40:59;-0.20;99.90
54192;DHT22;40101;53.002;6.488;2022-12-18T13:43:43;-0.20;99.90
54192;DHT22;40101;53.002;6.488;2022-12-18T13:46:45;-0.10;99.90
54192;DHT22;40101;53.002;6.488;2022-12-18T13:51:49;-0.10;99.90
54192;DHT22;40101;53.002;6.488;2022-12-18T13:54:24;-0.10;99.90
54192;DHT22;40101;53.002;6.488;2022-12-18T13:56:50;-0.10;99.90
54192;DHT22;40101;53.002;6.488;2022-12-18T13:59:23;-0.10;99.90
54192;DHT22;40101;53.002;6.488;2022-12-18T14:01:57;-0.10;99.90
54192;DHT22;40101;53.002;6.488;2022-12-18T14:06:52;-0.10;99.90
54192;DHT22;40101;53.002;6.488;2022-12-18T14:09:25;-0.20;99.90
54192;DHT22;40101;53.002;6.488;2022-12-18T14:11:52;-0.20;99.90
54192;DHT22;40101;53.002;6.488;2022-12-18T14:14:42;-0.20;99.90
54192;DHT22;40101;53.002;6.488;2022-12-18T14:17:10;-0.10;99.90
54192;DHT22;40101;53.002;6.488;2022-12-18T14:19:40;0.30;99.90
54192;DHT22;40101;53.002;6.488;2022-12-18T14:22:15;-0.20;99.90
54192;DHT22;40101;53.002;6.488;2022-12-18T14:24:41;-0.20;99.90
54192;DHT22;40101;53.002;6.488;2022-12-18T14:27:25;-0.20;99.90
54192;DHT22;40101;53.002;6.488;2022-12-18T14:29:51;-0.20;99.90
54192;DHT22;40101;53.002;6.488;2022-12-18T14:32:19;-0.20;99.90
54192;DHT22;40101;53.002;6.488;2022-12-18T14:37:13;-0.20;99.90
54192;DHT22;40101;53.002;6.488;2022-12-18T14:39:40;-0.20;99.90
54192;DHT22;40101;53.002;6.488;2022-12-18T14:42:09;-0.20;99.90
54192;DHT22;40101;53.002;6.488;2022-12-18T14:44:35;-0.20;99.90
54192;DHT22;40101;53.002;6.488;2022-12-18T14:47:01;-0.20;99.90
54192;DHT22;40101;53.002;6.488;2022-12-18T14:49:31;-0.20;99.90
54192;DHT22;40101;53.002;6.488;2022-12-18T14:52:26;-0.20;99.90
54192;DHT22;40101;53.002;6.488;2022-12-18T14:54:53;-0.30;99.90
54192;DHT22;40101;53.002;6.488;2022-12-18T14:57:25;0.40;99.90
54192;DHT22;40101;53.002;6.488;2022-12-18T14:59:52;-0.30;99.90
54192;DHT22;40101;53.002;6.488;2022-12-18T15:02:23;-0.40;99.90
54192;DHT22;40101;53.002;6.488;2022-12-18T15:05:05;-0.50;99.90
54192;DHT22;40101;53.002;6.488;2022-12-18T15:07:49;-0.40;99.90
54192;DHT22;40101;53.002;6.488;2022-12-18T15:10:17;-0.50;99.90
54192;DHT22;40101;53.002;6.488;2022-12-18T15:12:47;-0.40;99.90
54192;DHT22;40101;53.002;6.488;2022-12-18T15:20:25;-0.40;99.90
54192;DHT22;40101;53.002;6.488;2022-12-18T15:22:51;-0.40;99.90
54192;DHT22;40101;53.002;6.488;2022-12-18T15:25:35;-0.40;99.90
54192;DHT22;40101;53.002;6.488;2022-12-18T15:28:03;-0.40;99.90
54192;DHT22;40101;53.002;6.488;2022-12-18T15:30:29;-0.50;99.90
54192;DHT22;40101;53.002;6.488;2022-12-18T15:33:16;-0.60;99.90
54192;DHT22;40101;53.002;6.488;2022-12-18T15:35:42;-0.70;99.90
54192;DHT22;40101;53.002;6.488;2022-12-18T15:38:08;-0.70;99.90
54192;DHT22;40101;53.002;6.488;2022-12-18T15:40:34;0.00;99.90
54192;DHT22;40101;53.002;6.488;2022-12-18T15:43:00;-0.70;99.90
54192;DHT22;40101;53.002;6.488;2022-12-18T15:45:44;-0.70;99.90
54192;DHT22;40101;53.002;6.488;2022-12-18T15:48:21;-0.70;99.90
54192;DHT22;40101;53.002;6.488;2022-12-18T15:50:48;-0.70;99.90
54192;DHT22;40101;53.002;6.488;2022-12-18T15:53:14;-0.70;99.90
54192;DHT22;40101;53.002;6.488;2022-12-18T15:55:40;-0.70;99.90
54192;DHT22;40101;53.002;6.488;2022-12-18T15:58:24;-0.70;99.90
54192;DHT22;40101;53.002;6.488;2022-12-18T16:00:49;-0.70;99.90
54192;DHT22;40101;53.002;6.488;2022-12-18T16:03:15;-0.70;99.90
54192;DHT22;40101;53.002;6.488;2022-12-18T16:05:41;-0.70;99.90
54192;DHT22;40101;53.002;6.488;2022-12-18T16:08:06;-0.70;99.90
54192;DHT22;40101;53.002;6.488;2022-12-18T16:10:32;-0.70;99.90
54192;DHT22;40101;53.002;6.488;2022-12-18T16:12:58;-0.80;99.90
54192;DHT22;40101;53.002;6.488;2022-12-18T16:15:23;-0.80;99.90
54192;DHT22;40101;53.002;6.488;2022-12-18T16:17:49;-0.10;99.90
54192;DHT22;40101;53.002;6.488;2022-12-18T16:20:17;-0.70;99.90
54192;DHT22;40101;53.002;6.488;2022-12-18T16:22:44;-0.70;99.90
54192;DHT22;40101;53.002;6.488;2022-12-18T16:25:25;-0.70;99.90
54192;DHT22;40101;53.002;6.488;2022-12-18T16:27:51;-0.70;99.90
54192;DHT22;40101;53.002;6.488;2022-12-18T16:30:20;-0.70;99.90
54192;DHT22;40101;53.002;6.488;2022-12-18T16:32:46;-0.70;99.90
54192;DHT22;40101;53.002;6.488;2022-12-18T16:35:14;-0.60;99.90
54192;DHT22;40101;53.002;6.488;2022-12-18T16:37:41;-0.60;99.90
54192;DHT22;40101;53.002;6.488;2022-12-18T16:40:13;-0.70;99.90
54192;DHT22;40101;53.002;6.488;2022-12-18T16:42:42;-0.60;99.90
54192;DHT22;40101;53.002;6.488;2022-12-18T16:45:15;-0.60;99.90
54192;DHT22;40101;53.002;6.488;2022-12-18T16:47:44;-0.60;99.90
54192;DHT22;40101;53.002;6.488;2022-12-18T16:50:11;-0.60;99.90
54192;DHT22;40101;53.002;6.488;2022-12-18T16:52:38;-0.70;99.90
54192;DHT22;40101;53.002;6.488;2022-12-18T16:55:04;-1.10;99.90
54192;DHT22;40101;53.002;6.488;2022-12-18T16:57:34;-0.60;99.90
54192;DHT22;40101;53.002;6.488;2022-12-18T17:00:01;-0.50;99.90
54192;DHT22;40101;53.002;6.488;2022-12-18T17:02:27;-0.50;99.90
54192;DHT22;40101;53.002;6.488;2022-12-18T17:04:55;-0.50;99.90
54192;DHT22;40101;53.002;6.488;2022-12-18T17:07:24;-0.50;99.90
54192;DHT22;40101;53.002;6.488;2022-12-18T17:09:50;-0.40;99.90
54192;DHT22;40101;53.002;6.488;2022-12-18T17:12:22;-0.40;99.90
54192;DHT22;40101;53.002;6.488;2022-12-18T17:14:49;-0.40;99.90
54192;DHT22;40101;53.002;6.488;2022-12-18T17:17:15;-0.40;99.90
54192;DHT22;40101;53.002;6.488;2022-12-18T17:19:41;-0.40;99.90
54192;DHT22;40101;53.002;6.488;2022-12-18T17:22:07;-0.40;99.90
54192;DHT22;40101;53.002;6.488;2022-12-18T17:24:32;-0.30;99.90
54192;DHT22;40101;53.002;6.488;2022-12-18T17:26:58;-0.30;99.90
54192;DHT22;40101;53.002;6.488;2022-12-18T17:29:24;-0.30;99.90
54192;DHT22;40101;53.002;6.488;2022-12-18T17:31:50;-0.30;99.90